sensor_id;sensor_type;location;lat;lon;timestamp;pressure;altitude;pressure_sealevel;temperature;humidity
8717;BME280;4395;48.554;8.820;2022-07-06T00:01:46;96464.69;;;17.66;71.26
8717;BME280;4395;48.554;8.820;2022-07-06T00:03:49;96487.69;;;17.79;71.97
8717;BME280;4395;48.554;8.820;2022-07-06T00:05:56;96446.03;;;17.49;71.22
8717;BME280;4395;48.554;8.820;2022-07-06T00:07:59;96469.66;;;17.49;72.40
8717;BME280;4395;48.554;8.820;2022-07-06T00:10:04;96485.34;;;17.62;72.92
8717;BME280;4395;48.554;8.820;2022-07-06T00:12:07;96476.25;;;17.82;71.65
8717;BME280;4395;48.554;8.820;2022-07-06T00:14:11;96482.22;;;18.13;70.19
8717;BME280;4395;48.554;8.820;2022-07-06T00:16:15;96487.97;;;18.11;69.82
8717;BME280;4395;48.554;8.820;2022-07-06T00:18:18;96496.91;;;17.83;71.28
8717;BME280;4395;48.554;8.820;2022-07-06T00:20:21;96483.94;;;17.70;72.39
8717;BME280;4395;48.554;8.820;2022-07-06T00:22:24;96492.81;;;18.14;71.07
8717;BME280;4395;48.554;8.820;2022-07-06T00:24:27;96479.56;;;18.08;69.65
8717;BME280;4395;48.554;8.820;2022-07-06T00:26:31;96479.53;;;17.79;71.04
8717;BME280;4395;48.554;8.820;2022-07-06T00:28:34;96489.97;;;18.00;70.99
8717;BME280;4395;48.554;8.820;2022-07-06T00:30:37;96480.16;;;17.65;71.72
8717;BME280;4395;48.554;8.820;2022-07-06T00:32:40;96488.66;;;17.93;70.62
8717;BME280;4395;48.554;8.820;2022-07-06T00:34:43;96485.69;;;17.50;72.82
8717;BME280;4395;48.554;8.820;2022-07-06T00:36:46;96455.91;;;18.08;69.24
8717;BME280;4395;48.554;8.820;2022-07-06T00:38:49;96480.66;;;17.73;72.28
8717;BME280;4395;48.554;8.820;2022-07-06T00:40:52;96485.31;;;18.01;70.69
8717;BME280;4395;48.554;8.820;2022-07-06T00:42:56;96484.72;;;17.75;71.99
8717;BME280;4395;48.554;8.820;2022-07-06T00:44:59;96492.28;;;17.39;73.74
8717;BME280;4395;48.554;8.820;2022-07-06T00:47:03;96485.13;;;17.53;72.94
8717;BME280;4395;48.554;8.820;2022-07-06T00:49:07;96487.97;;;18.11;69.79
8717;BME280;4395;48.554;8.820;2022-07-06T00:51:31;96490.19;;;18.38;68.01
8717;BME280;4395;48.554;8.820;2022-07-06T00:53:34;96480.38;;;18.08;68.59
8717;BME280;4395;48.554;8.820;2022-07-06T00:55:38;96457.81;;;18.37;65.70
8717;BME280;4395;48.554;8.820;2022-07-06T00:57:41;96489.00;;;18.20;68.38
8717;BME280;4395;48.554;8.820;2022-07-06T00:59:46;96473.34;;;18.36;67.48
8717;BME280;4395;48.554;8.820;2022-07-06T01:01:49;96485.75;;;18.13;67.87
8717;BME280;4395;48.554;8.820;2022-07-06T01:03:52;96483.31;;;18.12;68.00
8717;BME280;4395;48.554;8.820;2022-07-06T01:05:55;96484.66;;;18.14;69.56
8717;BME280;4395;48.554;8.820;2022-07-06T01:07:58;96475.53;;;18.00;68.93
8717;BME280;4395;48.554;8.820;2022-07-06T01:10:02;96486.09;;;17.73;69.62
8717;BME280;4395;48.554;8.820;2022-07-06T01:12:06;96481.94;;;16.92;74.75
8717;BME280;4395;48.554;8.820;2022-07-06T01:14:11;96479.19;;;17.46;72.03
8717;BME280;4395;48.554;8.820;2022-07-06T01:16:17;96489.31;;;18.43;68.96
8717;BME280;4395;48.554;8.820;2022-07-06T01:18:20;96484.44;;;18.40;67.67
8717;BME280;4395;48.554;8.820;2022-07-06T01:20:26;96485.38;;;17.96;69.51
8717;BME280;4395;48.554;8.820;2022-07-06T01:22:29;96484.00;;;17.59;70.74
8717;BME280;4395;48.554;8.820;2022-07-06T01:24:35;96478.59;;;18.27;66.65
8717;BME280;4395;48.554;8.820;2022-07-06T01:26:38;96463.72;;;17.86;68.29
8717;BME280;4395;48.554;8.820;2022-07-06T01:28:41;96443.41;;;17.34;70.15
8717;BME280;4395;48.554;8.820;2022-07-06T01:30:44;96467.16;;;17.57;70.74
8717;BME280;4395;48.554;8.820;2022-07-06T01:32:47;96466.25;;;17.33;71.42
8717;BME280;4395;48.554;8.820;2022-07-06T01:34:50;96475.28;;;17.62;69.69
8717;BME280;4395;48.554;8.820;2022-07-06T01:36:54;96473.59;;;17.27;73.23
8717;BME280;4395;48.554;8.820;2022-07-06T01:38:57;96473.66;;;17.17;73.42
8717;BME280;4395;48.554;8.820;2022-07-06T01:41:05;96464.84;;;17.80;70.69
8717;BME280;4395;48.554;8.820;2022-07-06T01:43:10;96477.00;;;17.87;70.88
8717;BME280;4395;48.554;8.820;2022-07-06T01:45:13;96464.63;;;18.05;67.64
8717;BME280;4395;48.554;8.820;2022-07-06T01:47:16;96479.19;;;17.46;70.94
8717;BME280;4395;48.554;8.820;2022-07-06T01:49:19;96473.19;;;17.49;71.32
8717;BME280;4395;48.554;8.820;2022-07-06T01:51:22;96485.63;;;17.60;71.30
8717;BME280;4395;48.554;8.820;2022-07-06T01:53:28;96483.41;;;17.23;73.14
8717;BME280;4395;48.554;8.820;2022-07-06T01:55:31;96490.44;;;17.74;69.52
8717;BME280;4395;48.554;8.820;2022-07-06T01:57:34;96493.44;;;18.06;67.55
8717;BME280;4395;48.554;8.820;2022-07-06T01:59:37;96494.84;;;17.64;70.88
8717;BME280;4395;48.554;8.820;2022-07-06T02:01:40;96495.22;;;18.50;66.18
8717;BME280;4395;48.554;8.820;2022-07-06T02:03:43;96484.06;;;18.99;63.67
8717;BME280;4395;48.554;8.820;2022-07-06T02:05:47;96476.16;;;19.40;61.65
8717;BME280;4395;48.554;8.820;2022-07-06T02:07:49;96490.19;;;19.10;62.14
8717;BME280;4395;48.554;8.820;2022-07-06T02:09:54;96485.63;;;19.67;59.95
8717;BME280;4395;48.554;8.820;2022-07-06T02:11:59;96474.38;;;19.87;58.26
8717;BME280;4395;48.554;8.820;2022-07-06T02:14:02;96480.34;;;19.33;60.09
8717;BME280;4395;48.554;8.820;2022-07-06T02:16:05;96451.94;;;18.77;62.66
8717;BME280;4395;48.554;8.820;2022-07-06T02:18:08;96468.34;;;18.72;62.20
8717;BME280;4395;48.554;8.820;2022-07-06T02:20:11;96451.09;;;18.29;63.71
8717;BME280;4395;48.554;8.820;2022-07-06T02:22:14;96486.09;;;18.88;62.33
8717;BME280;4395;48.554;8.820;2022-07-06T02:24:16;96487.00;;;17.97;66.33
8717;BME280;4395;48.554;8.820;2022-07-06T02:26:21;96493.13;;;17.79;69.55
8717;BME280;4395;48.554;8.820;2022-07-06T02:28:24;96481.31;;;18.27;65.22
8717;BME280;4395;48.554;8.820;2022-07-06T02:30:27;96483.47;;;17.96;66.94
8717;BME280;4395;48.554;8.820;2022-07-06T02:32:30;96491.94;;;18.24;66.87
8717;BME280;4395;48.554;8.820;2022-07-06T02:34:34;96488.41;;;18.23;66.31
8717;BME280;4395;48.554;8.820;2022-07-06T02:36:37;96491.09;;;17.55;70.60
8717;BME280;4395;48.554;8.820;2022-07-06T02:38:40;96436.34;;;18.06;66.54
8717;BME280;4395;48.554;8.820;2022-07-06T02:40:43;96493.97;;;18.08;67.07
8717;BME280;4395;48.554;8.820;2022-07-06T02:42:48;96492.19;;;17.93;68.74
8717;BME280;4395;48.554;8.820;2022-07-06T02:44:52;96461.81;;;18.15;66.62
8717;BME280;4395;48.554;8.820;2022-07-06T02:46:55;96496.28;;;19.02;64.13
8717;BME280;4395;48.554;8.820;2022-07-06T02:48:58;96484.03;;;17.54;70.00
8717;BME280;4395;48.554;8.820;2022-07-06T02:51:01;96488.78;;;17.78;68.76
8717;BME280;4395;48.554;8.820;2022-07-06T02:53:04;96472.78;;;18.05;67.02
8717;BME280;4395;48.554;8.820;2022-07-06T02:55:07;96502.78;;;18.29;67.36
8717;BME280;4395;48.554;8.820;2022-07-06T02:57:11;96494.97;;;17.44;71.71
8717;BME280;4395;48.554;8.820;2022-07-06T02:59:15;96506.25;;;17.66;71.56
8717;BME280;4395;48.554;8.820;2022-07-06T03:01:18;96501.97;;;17.55;71.26
8717;BME280;4395;48.554;8.820;2022-07-06T03:03:21;96504.28;;;16.74;77.29
8717;BME280;4395;48.554;8.820;2022-07-06T03:05:24;96500.63;;;17.92;70.67
8717;BME280;4395;48.554;8.820;2022-07-06T03:07:28;96487.81;;;17.58;72.20
8717;BME280;4395;48.554;8.820;2022-07-06T03:09:31;96503.91;;;17.50;73.06
8717;BME280;4395;48.554;8.820;2022-07-06T03:11:33;96511.69;;;17.61;73.20
8717;BME280;4395;48.554;8.820;2022-07-06T03:13:38;96501.88;;;17.65;72.82
8717;BME280;4395;48.554;8.820;2022-07-06T03:15:42;96489.28;;;17.41;73.03
8717;BME280;4395;48.554;8.820;2022-07-06T03:17:45;96508.97;;;17.61;74.23
8717;BME280;4395;48.554;8.820;2022-07-06T03:19:50;96499.88;;;18.20;69.78
8717;BME280;4395;48.554;8.820;2022-07-06T03:21:54;96502.25;;;17.93;70.52
8717;BME280;4395;48.554;8.820;2022-07-06T03:23:58;96512.41;;;17.33;75.58
8717;BME280;4395;48.554;8.820;2022-07-06T03:26:00;96460.28;;;16.77;76.70
8717;BME280;4395;48.554;8.820;2022-07-06T03:28:05;96501.28;;;16.60;79.98
8717;BME280;4395;48.554;8.820;2022-07-06T03:30:08;96509.91;;;16.92;78.58
8717;BME280;4395;48.554;8.820;2022-07-06T03:32:19;96508.00;;;16.93;78.55
8717;BME280;4395;48.554;8.820;2022-07-06T03:34:21;96501.72;;;17.02;79.21
8717;BME280;4395;48.554;8.820;2022-07-06T03:36:24;96500.84;;;17.12;78.15
8717;BME280;4395;48.554;8.820;2022-07-06T03:38:27;96506.16;;;16.63;81.87
8717;BME280;4395;48.554;8.820;2022-07-06T03:40:30;96500.47;;;16.75;81.82
8717;BME280;4395;48.554;8.820;2022-07-06T03:42:34;96514.38;;;16.37;84.17
8717;BME280;4395;48.554;8.820;2022-07-06T03:44:39;96505.59;;;16.86;81.91
8717;BME280;4395;48.554;8.820;2022-07-06T03:46:43;96505.94;;;16.44;84.48
8717;BME280;4395;48.554;8.820;2022-07-06T03:48:48;96506.06;;;17.03;80.89
8717;BME280;4395;48.554;8.820;2022-07-06T03:50:51;96506.91;;;16.94;80.64
8717;BME280;4395;48.554;8.820;2022-07-06T03:52:53;96513.00;;;16.40;84.43
8717;BME280;4395;48.554;8.820;2022-07-06T03:54:56;96508.09;;;16.57;84.25
8717;BME280;4395;48.554;8.820;2022-07-06T03:57:04;96513.28;;;16.44;84.46
8717;BME280;4395;48.554;8.820;2022-07-06T03:59:07;96504.91;;;16.15;86.41
8717;BME280;4395;48.554;8.820;2022-07-06T04:01:12;96506.75;;;16.65;85.01
8717;BME280;4395;48.554;8.820;2022-07-06T04:03:15;96504.59;;;16.42;86.02
8717;BME280;4395;48.554;8.820;2022-07-06T04:05:23;96498.22;;;16.92;82.56
8717;BME280;4395;48.554;8.820;2022-07-06T04:07:28;96510.00;;;16.57;83.71
8717;BME280;4395;48.554;8.820;2022-07-06T04:09:31;96499.28;;;16.96;82.62
8717;BME280;4395;48.554;8.820;2022-07-06T04:11:35;96508.03;;;17.42;79.26
8717;BME280;4395;48.554;8.820;2022-07-06T04:13:40;96510.03;;;17.71;75.90
8717;BME280;4395;48.554;8.820;2022-07-06T04:15:43;96525.00;;;17.19;80.00
8717;BME280;4395;48.554;8.820;2022-07-06T04:17:46;96510.91;;;17.12;81.84
8717;BME280;4395;48.554;8.820;2022-07-06T04:20:00;96515.25;;;17.13;82.08
8717;BME280;4395;48.554;8.820;2022-07-06T04:22:05;96515.78;;;17.15;81.63
8717;BME280;4395;48.554;8.820;2022-07-06T04:24:11;96519.84;;;16.07;89.98
8717;BME280;4395;48.554;8.820;2022-07-06T04:26:14;96522.41;;;15.31;96.77
8717;BME280;4395;48.554;8.820;2022-07-06T04:28:17;96522.94;;;15.33;96.90
8717;BME280;4395;48.554;8.820;2022-07-06T04:30:21;96522.66;;;15.24;99.65
8717;BME280;4395;48.554;8.820;2022-07-06T04:32:24;96518.03;;;15.20;100.00
8717;BME280;4395;48.554;8.820;2022-07-06T04:34:28;96519.00;;;14.88;100.00
8717;BME280;4395;48.554;8.820;2022-07-06T04:36:31;96520.69;;;14.99;100.00
8717;BME280;4395;48.554;8.820;2022-07-06T04:38:36;96530.47;;;15.16;100.00
8717;BME280;4395;48.554;8.820;2022-07-06T04:40:41;96535.66;;;15.22;100.00
8717;BME280;4395;48.554;8.820;2022-07-06T04:42:48;96524.59;;;15.44;100.00
8717;BME280;4395;48.554;8.820;2022-07-06T04:44:51;96531.41;;;15.57;98.21
8717;BME280;4395;48.554;8.820;2022-07-06T04:46:54;96539.34;;;15.73;99.13
8717;BME280;4395;48.554;8.820;2022-07-06T04:48:57;96537.72;;;15.78;99.04
8717;BME280;4395;48.554;8.820;2022-07-06T04:51:03;96537.72;;;15.98;98.07
8717;BME280;4395;48.554;8.820;2022-07-06T04:53:06;96539.91;;;16.06;97.62
8717;BME280;4395;48.554;8.820;2022-07-06T04:55:12;96544.22;;;16.12;97.39
8717;BME280;4395;48.554;8.820;2022-07-06T04:57:16;96539.34;;;16.09;96.58
8717;BME280;4395;48.554;8.820;2022-07-06T04:59:19;96542.88;;;16.15;96.10
8717;BME280;4395;48.554;8.820;2022-07-06T05:01:22;96539.09;;;16.05;94.83
8717;BME280;4395;48.554;8.820;2022-07-06T05:03:25;96547.22;;;16.11;95.34
8717;BME280;4395;48.554;8.820;2022-07-06T05:05:28;96539.88;;;15.86;97.90
8717;BME280;4395;48.554;8.820;2022-07-06T05:07:32;96537.19;;;16.01;95.32
8717;BME280;4395;48.554;8.820;2022-07-06T05:09:39;96553.69;;;15.74;98.68
8717;BME280;4395;48.554;8.820;2022-07-06T05:11:44;96565.19;;;15.34;100.00
8717;BME280;4395;48.554;8.820;2022-07-06T05:13:47;96556.63;;;15.57;100.00
8717;BME280;4395;48.554;8.820;2022-07-06T05:15:51;96550.91;;;15.54;100.00
8717;BME280;4395;48.554;8.820;2022-07-06T05:17:54;96572.25;;;15.40;100.00
8717;BME280;4395;48.554;8.820;2022-07-06T05:19:58;96563.84;;;15.36;100.00
8717;BME280;4395;48.554;8.820;2022-07-06T05:22:01;96538.09;;;15.24;100.00
8717;BME280;4395;48.554;8.820;2022-07-06T05:24:06;96562.09;;;15.62;100.00
8717;BME280;4395;48.554;8.820;2022-07-06T05:26:09;96565.06;;;15.66;100.00
8717;BME280;4395;48.554;8.820;2022-07-06T05:28:13;96567.50;;;15.62;100.00
8717;BME280;4395;48.554;8.820;2022-07-06T05:30:18;96566.44;;;15.68;100.00
8717;BME280;4395;48.554;8.820;2022-07-06T05:32:21;96565.91;;;15.82;100.00
8717;BME280;4395;48.554;8.820;2022-07-06T05:34:24;96576.50;;;15.98;99.00
8717;BME280;4395;48.554;8.820;2022-07-06T05:36:27;96571.88;;;15.99;99.79
8717;BME280;4395;48.554;8.820;2022-07-06T05:38:30;96570.50;;;15.71;100.00
8717;BME280;4395;48.554;8.820;2022-07-06T05:40:33;96569.69;;;15.81;100.00
8717;BME280;4395;48.554;8.820;2022-07-06T05:42:36;96576.75;;;15.92;100.00
8717;BME280;4395;48.554;8.820;2022-07-06T05:44:41;96529.47;;;15.42;100.00
8717;BME280;4395;48.554;8.820;2022-07-06T05:46:44;96570.25;;;16.03;100.00
8717;BME280;4395;48.554;8.820;2022-07-06T05:48:48;96562.13;;;16.28;97.27
8717;BME280;4395;48.554;8.820;2022-07-06T05:51:09;96575.13;;;16.21;96.47
8717;BME280;4395;48.554;8.820;2022-07-06T05:53:15;96569.97;;;16.35;95.52
8717;BME280;4395;48.554;8.820;2022-07-06T05:55:23;96577.84;;;16.21;98.01
8717;BME280;4395;48.554;8.820;2022-07-06T05:57:27;96577.56;;;16.13;98.29
8717;BME280;4395;48.554;8.820;2022-07-06T05:59:30;96567.28;;;16.15;98.32
8717;BME280;4395;48.554;8.820;2022-07-06T06:01:35;96581.34;;;16.67;93.92
8717;BME280;4395;48.554;8.820;2022-07-06T06:03:46;96580.81;;;16.40;96.49
8717;BME280;4395;48.554;8.820;2022-07-06T06:05:49;96577.03;;;16.31;96.96
8717;BME280;4395;48.554;8.820;2022-07-06T06:07:54;96574.28;;;16.61;94.65
8717;BME280;4395;48.554;8.820;2022-07-06T06:09:59;96574.22;;;16.97;92.44
8717;BME280;4395;48.554;8.820;2022-07-06T06:12:02;96573.38;;;17.12;91.52
8717;BME280;4395;48.554;8.820;2022-07-06T06:14:05;96583.03;;;17.38;89.28
8717;BME280;4395;48.554;8.820;2022-07-06T06:16:09;96583.25;;;16.67;93.88
8717;BME280;4395;48.554;8.820;2022-07-06T06:18:14;96576.66;;;17.03;91.61
8717;BME280;4395;48.554;8.820;2022-07-06T06:20:19;96590.53;;;16.87;91.99
8717;BME280;4395;48.554;8.820;2022-07-06T06:22:21;96589.50;;;16.73;93.00
8717;BME280;4395;48.554;8.820;2022-07-06T06:24:24;96583.16;;;17.02;89.70
8717;BME280;4395;48.554;8.820;2022-07-06T06:26:29;96576.16;;;16.86;92.83
8717;BME280;4395;48.554;8.820;2022-07-06T06:28:32;96586.22;;;16.76;94.60
8717;BME280;4395;48.554;8.820;2022-07-06T06:30:36;96590.56;;;16.77;92.76
8717;BME280;4395;48.554;8.820;2022-07-06T06:32:39;96586.53;;;17.44;88.51
8717;BME280;4395;48.554;8.820;2022-07-06T06:34:43;96580.00;;;17.94;86.51
8717;BME280;4395;48.554;8.820;2022-07-06T06:36:46;96578.44;;;17.88;84.76
8717;BME280;4395;48.554;8.820;2022-07-06T06:38:49;96582.50;;;18.29;82.85
8717;BME280;4395;48.554;8.820;2022-07-06T06:40:57;96585.50;;;18.62;80.07
8717;BME280;4395;48.554;8.820;2022-07-06T06:43:00;96578.69;;;18.59;77.77
8717;BME280;4395;48.554;8.820;2022-07-06T06:45:05;96585.22;;;18.63;78.13
8717;BME280;4395;48.554;8.820;2022-07-06T06:47:08;96575.72;;;18.61;78.67
8717;BME280;4395;48.554;8.820;2022-07-06T06:49:11;96577.81;;;17.96;82.36
8717;BME280;4395;48.554;8.820;2022-07-06T06:51:16;96558.50;;;17.97;82.50
8717;BME280;4395;48.554;8.820;2022-07-06T06:53:19;96580.38;;;18.21;83.40
8717;BME280;4395;48.554;8.820;2022-07-06T06:55:22;96575.81;;;18.46;81.40
8717;BME280;4395;48.554;8.820;2022-07-06T06:57:24;96584.13;;;18.65;80.34
8717;BME280;4395;48.554;8.820;2022-07-06T06:59:27;96582.28;;;18.84;78.00
8717;BME280;4395;48.554;8.820;2022-07-06T07:01:30;96582.22;;;18.60;77.76
8717;BME280;4395;48.554;8.820;2022-07-06T07:03:34;96584.97;;;18.89;77.20
8717;BME280;4395;48.554;8.820;2022-07-06T07:05:37;96572.81;;;18.47;78.14
8717;BME280;4395;48.554;8.820;2022-07-06T07:07:41;96591.31;;;18.79;77.74
8717;BME280;4395;48.554;8.820;2022-07-06T07:09:44;96584.78;;;18.80;78.35
8717;BME280;4395;48.554;8.820;2022-07-06T07:11:47;96586.75;;;18.99;77.38
8717;BME280;4395;48.554;8.820;2022-07-06T07:13:50;96587.75;;;19.08;76.97
8717;BME280;4395;48.554;8.820;2022-07-06T07:15:53;96579.16;;;19.19;75.15
8717;BME280;4395;48.554;8.820;2022-07-06T07:17:56;96572.91;;;19.19;75.53
8717;BME280;4395;48.554;8.820;2022-07-06T07:19:59;96579.38;;;19.47;74.13
8717;BME280;4395;48.554;8.820;2022-07-06T07:22:02;96580.75;;;19.87;71.71
8717;BME280;4395;48.554;8.820;2022-07-06T07:24:07;96576.25;;;19.35;75.00
8717;BME280;4395;48.554;8.820;2022-07-06T07:26:11;96580.47;;;19.46;73.79
8717;BME280;4395;48.554;8.820;2022-07-06T07:28:14;96567.59;;;19.51;73.11
8717;BME280;4395;48.554;8.820;2022-07-06T07:30:17;96573.09;;;19.46;73.24
8717;BME280;4395;48.554;8.820;2022-07-06T07:32:19;96569.19;;;19.95;71.37
8717;BME280;4395;48.554;8.820;2022-07-06T07:34:22;96573.75;;;19.81;71.66
8717;BME280;4395;48.554;8.820;2022-07-06T07:36:25;96575.44;;;19.77;71.09
8717;BME280;4395;48.554;8.820;2022-07-06T07:38:28;96576.56;;;19.76;71.23
8717;BME280;4395;48.554;8.820;2022-07-06T07:40:33;96566.72;;;20.12;68.53
8717;BME280;4395;48.554;8.820;2022-07-06T07:42:37;96563.06;;;20.03;69.67
8717;BME280;4395;48.554;8.820;2022-07-06T07:44:42;96574.09;;;19.55;70.90
8717;BME280;4395;48.554;8.820;2022-07-06T07:46:45;96545.97;;;19.36;69.23
8717;BME280;4395;48.554;8.820;2022-07-06T07:48:47;96569.56;;;19.46;71.46
8717;BME280;4395;48.554;8.820;2022-07-06T07:50:51;96565.13;;;19.92;67.80
8717;BME280;4395;48.554;8.820;2022-07-06T07:52:54;96570.78;;;19.58;70.65
8717;BME280;4395;48.554;8.820;2022-07-06T07:54:57;96564.97;;;20.03;68.04
8717;BME280;4395;48.554;8.820;2022-07-06T07:57:21;96568.06;;;20.15;66.15
8717;BME280;4395;48.554;8.820;2022-07-06T07:59:24;96569.84;;;19.87;67.63
8717;BME280;4395;48.554;8.820;2022-07-06T08:01:27;96569.34;;;20.36;65.95
8717;BME280;4395;48.554;8.820;2022-07-06T08:03:30;96559.03;;;20.66;63.35
8717;BME280;4395;48.554;8.820;2022-07-06T08:05:33;96565.75;;;20.41;62.64
8717;BME280;4395;48.554;8.820;2022-07-06T08:07:36;96568.88;;;20.15;65.35
8717;BME280;4395;48.554;8.820;2022-07-06T08:09:39;96559.97;;;19.91;67.65
8717;BME280;4395;48.554;8.820;2022-07-06T08:11:42;96565.69;;;20.27;65.97
8717;BME280;4395;48.554;8.820;2022-07-06T08:13:46;96564.94;;;20.40;63.60
8717;BME280;4395;48.554;8.820;2022-07-06T08:15:49;96568.34;;;20.78;59.96
8717;BME280;4395;48.554;8.820;2022-07-06T08:17:52;96566.25;;;20.24;62.16
8717;BME280;4395;48.554;8.820;2022-07-06T08:19:55;96570.44;;;20.54;61.12
8717;BME280;4395;48.554;8.820;2022-07-06T08:21:58;96560.16;;;20.78;60.51
8717;BME280;4395;48.554;8.820;2022-07-06T08:24:01;96571.28;;;21.28;60.88
8717;BME280;4395;48.554;8.820;2022-07-06T08:26:04;96565.78;;;21.56;59.26
8717;BME280;4395;48.554;8.820;2022-07-06T08:28:07;96569.25;;;21.47;58.02
8717;BME280;4395;48.554;8.820;2022-07-06T08:30:12;96563.75;;;20.93;57.83
8717;BME280;4395;48.554;8.820;2022-07-06T08:32:14;96566.03;;;20.72;59.02
8717;BME280;4395;48.554;8.820;2022-07-06T08:34:37;96565.22;;;20.71;59.34
8717;BME280;4395;48.554;8.820;2022-07-06T08:36:40;96565.59;;;21.38;57.59
8717;BME280;4395;48.554;8.820;2022-07-06T08:38:43;96572.03;;;21.70;55.76
8717;BME280;4395;48.554;8.820;2022-07-06T08:40:49;96563.19;;;21.87;56.27
8717;BME280;4395;48.554;8.820;2022-07-06T08:42:54;96563.91;;;21.78;56.80
8717;BME280;4395;48.554;8.820;2022-07-06T08:44:58;96568.91;;;22.35;56.68
8717;BME280;4395;48.554;8.820;2022-07-06T08:47:05;96572.13;;;22.59;54.85
8717;BME280;4395;48.554;8.820;2022-07-06T08:49:13;96571.47;;;22.54;54.79
8717;BME280;4395;48.554;8.820;2022-07-06T08:51:18;96577.34;;;22.69;54.27
8717;BME280;4395;48.554;8.820;2022-07-06T08:53:28;96570.69;;;22.84;53.32
8717;BME280;4395;48.554;8.820;2022-07-06T08:55:32;96581.47;;;22.81;53.01
8717;BME280;4395;48.554;8.820;2022-07-06T08:57:35;96569.25;;;22.87;52.85
8717;BME280;4395;48.554;8.820;2022-07-06T08:59:41;96575.72;;;22.91;52.73
8717;BME280;4395;48.554;8.820;2022-07-06T09:01:44;96574.63;;;22.69;53.83
8717;BME280;4395;48.554;8.820;2022-07-06T09:03:50;96570.66;;;22.53;54.23
8717;BME280;4395;48.554;8.820;2022-07-06T09:05:56;96565.53;;;22.60;54.14
8717;BME280;4395;48.554;8.820;2022-07-06T09:08:02;96563.25;;;23.16;52.21
8717;BME280;4395;48.554;8.820;2022-07-06T09:10:07;96563.88;;;23.52;50.42
8717;BME280;4395;48.554;8.820;2022-07-06T09:12:11;96534.34;;;23.40;49.41
8717;BME280;4395;48.554;8.820;2022-07-06T09:14:15;96561.78;;;23.09;50.92
8717;BME280;4395;48.554;8.820;2022-07-06T09:16:25;96561.38;;;22.94;51.02
8717;BME280;4395;48.554;8.820;2022-07-06T09:18:41;96566.03;;;23.24;51.30
8717;BME280;4395;48.554;8.820;2022-07-06T09:20:47;96559.22;;;23.53;50.33
8717;BME280;4395;48.554;8.820;2022-07-06T09:22:50;96561.06;;;23.92;49.17
8717;BME280;4395;48.554;8.820;2022-07-06T09:24:53;96564.13;;;24.16;48.62
8717;BME280;4395;48.554;8.820;2022-07-06T09:26:56;96532.00;;;23.99;47.96
8717;BME280;4395;48.554;8.820;2022-07-06T09:29:00;96566.72;;;24.47;47.73
8717;BME280;4395;48.554;8.820;2022-07-06T09:31:07;96556.53;;;24.56;46.93
8717;BME280;4395;48.554;8.820;2022-07-06T09:33:17;96564.41;;;23.63;49.01
8717;BME280;4395;48.554;8.820;2022-07-06T09:35:22;96559.63;;;24.38;47.51
8717;BME280;4395;48.554;8.820;2022-07-06T09:37:29;96561.22;;;24.64;47.02
8717;BME280;4395;48.554;8.820;2022-07-06T09:39:32;96562.09;;;25.03;45.65
8717;BME280;4395;48.554;8.820;2022-07-06T09:41:35;96561.09;;;25.08;44.96
8717;BME280;4395;48.554;8.820;2022-07-06T09:43:38;96568.41;;;24.95;44.55
8717;BME280;4395;48.554;8.820;2022-07-06T09:45:43;96571.84;;;24.83;45.37
8717;BME280;4395;48.554;8.820;2022-07-06T09:47:46;96570.91;;;24.71;45.47
8717;BME280;4395;48.554;8.820;2022-07-06T09:49:49;96581.53;;;24.98;45.18
8717;BME280;4395;48.554;8.820;2022-07-06T09:51:54;96571.13;;;25.12;44.54
8717;BME280;4395;48.554;8.820;2022-07-06T09:53:59;96579.91;;;24.97;45.39
8717;BME280;4395;48.554;8.820;2022-07-06T09:56:02;96573.88;;;25.12;45.28
8717;BME280;4395;48.554;8.820;2022-07-06T09:58:06;96572.03;;;25.25;43.76
8717;BME280;4395;48.554;8.820;2022-07-06T10:00:10;96573.00;;;25.29;44.16
8717;BME280;4395;48.554;8.820;2022-07-06T10:02:13;96569.97;;;25.13;44.38
8717;BME280;4395;48.554;8.820;2022-07-06T10:04:18;96576.72;;;24.60;46.43
8717;BME280;4395;48.554;8.820;2022-07-06T10:06:23;96569.63;;;24.59;46.31
8717;BME280;4395;48.554;8.820;2022-07-06T10:08:28;96573.41;;;24.93;45.71
8717;BME280;4395;48.554;8.820;2022-07-06T10:10:34;96561.00;;;25.63;43.92
8717;BME280;4395;48.554;8.820;2022-07-06T10:12:37;96575.47;;;25.81;43.91
8717;BME280;4395;48.554;8.820;2022-07-06T10:14:43;96571.72;;;24.54;45.49
8717;BME280;4395;48.554;8.820;2022-07-06T10:16:52;96567.88;;;25.10;44.20
8717;BME280;4395;48.554;8.820;2022-07-06T10:18:56;96572.03;;;25.25;44.54
8717;BME280;4395;48.554;8.820;2022-07-06T10:21:00;96575.56;;;25.34;43.03
8717;BME280;4395;48.554;8.820;2022-07-06T10:23:04;96568.25;;;25.00;42.46
8717;BME280;4395;48.554;8.820;2022-07-06T10:25:07;96559.28;;;25.50;41.82
8717;BME280;4395;48.554;8.820;2022-07-06T10:27:12;96572.91;;;25.46;43.00
8717;BME280;4395;48.554;8.820;2022-07-06T10:29:17;96579.56;;;26.25;41.17
8717;BME280;4395;48.554;8.820;2022-07-06T10:31:21;96560.81;;;25.39;42.09
8717;BME280;4395;48.554;8.820;2022-07-06T10:33:25;96576.03;;;23.60;46.28
8717;BME280;4395;48.554;8.820;2022-07-06T10:35:29;96583.31;;;23.33;47.58
8717;BME280;4395;48.554;8.820;2022-07-06T10:37:32;96588.97;;;23.37;47.83
8717;BME280;4395;48.554;8.820;2022-07-06T10:39:37;96578.84;;;24.12;47.74
8717;BME280;4395;48.554;8.820;2022-07-06T10:41:57;96581.56;;;23.86;49.29
8717;BME280;4395;48.554;8.820;2022-07-06T10:44:16;96589.97;;;24.07;49.59
8717;BME280;4395;48.554;8.820;2022-07-06T10:46:19;96597.75;;;24.22;49.49
8717;BME280;4395;48.554;8.820;2022-07-06T10:48:22;96590.47;;;24.17;48.79
8717;BME280;4395;48.554;8.820;2022-07-06T10:50:34;96592.19;;;23.70;50.09
8717;BME280;4395;48.554;8.820;2022-07-06T10:52:57;96596.25;;;23.81;50.14
8717;BME280;4395;48.554;8.820;2022-07-06T10:55:00;96591.41;;;23.38;52.91
8717;BME280;4395;48.554;8.820;2022-07-06T10:57:08;96594.28;;;23.33;53.27
8717;BME280;4395;48.554;8.820;2022-07-06T10:59:12;96586.75;;;23.08;54.65
8717;BME280;4395;48.554;8.820;2022-07-06T11:01:18;96600.28;;;22.29;59.42
8717;BME280;4395;48.554;8.820;2022-07-06T11:03:40;96596.97;;;22.63;57.84
8717;BME280;4395;48.554;8.820;2022-07-06T11:05:43;96592.56;;;22.53;58.39
8717;BME280;4395;48.554;8.820;2022-07-06T11:08:09;96594.59;;;22.25;60.69
8717;BME280;4395;48.554;8.820;2022-07-06T11:10:11;96593.78;;;22.02;60.36
8717;BME280;4395;48.554;8.820;2022-07-06T11:12:15;96587.69;;;22.05;60.55
8717;BME280;4395;48.554;8.820;2022-07-06T11:14:21;96572.25;;;22.54;59.24
8717;BME280;4395;48.554;8.820;2022-07-06T11:16:27;96584.59;;;22.43;59.63
8717;BME280;4395;48.554;8.820;2022-07-06T11:18:38;96583.22;;;22.54;59.79